Tampa, Florida
Traffic Map
Current Weather Conditions
Tampa, Florida
Broken Clouds
Broken Clouds
79°
Feels Like: 83°
Wind Chill: 79° Ceiling: 16000
Heat Index: 83° Visibility: 10mi
Dew Point: 75° Wind: 6mph
Humidity: 88% Direction: 210° (SSW)
Pressure: 29.96in Gusts: 0mph
Raw Report DataKTPA 310853Z 21005KT 10SM FEW046 FEW110 BKN160 BKN200 26/24 A2996 RMK AO2 SLP144 T02610239 56006
Traffic Incident Summary
Active as of:
Severity:
Category:
InformationThere was an issue retrieving the traffic information for this location. Please try a different location or try again shortly.
Advertisements
Track Severe Weather on mobile